createdAt,value
2022-12-31T00:01:58.579Z,100803.66
2022-12-31T00:04:25.311Z,100814.78
2022-12-31T00:06:51.917Z,100815.66
2022-12-31T00:09:18.519Z,100815.00
2022-12-31T00:11:45.135Z,100815.81
2022-12-31T00:14:11.783Z,100815.72
2022-12-31T00:16:41.324Z,100809.53
2022-12-31T00:19:10.728Z,100807.94
2022-12-31T00:21:38.487Z,100815.94
2022-12-31T00:24:06.135Z,100811.47
2022-12-31T00:26:34.583Z,100815.88
2022-12-31T00:29:03.371Z,100817.38
2022-12-31T00:31:35.681Z,100831.03
2022-12-31T00:34:02.694Z,100824.53
2022-12-31T00:36:32.221Z,100813.31
2022-12-31T00:39:00.177Z,100824.47
2022-12-31T00:41:27.805Z,100828.81
2022-12-31T00:43:55.249Z,100824.84
2022-12-31T00:46:22.111Z,100832.81
2022-12-31T00:48:48.767Z,100839.13
2022-12-31T00:51:18.278Z,100841.84
2022-12-31T00:53:45.436Z,100854.59
2022-12-31T00:56:14.906Z,100847.97
2022-12-31T00:58:42.187Z,100845.41
2022-12-31T01:01:13.483Z,100849.34
2022-12-31T01:03:43.589Z,100843.59
2022-12-31T01:06:10.449Z,100847.91
2022-12-31T01:08:37.115Z,100852.25
2022-12-31T01:11:04.586Z,100850.19
2022-12-31T01:13:31.196Z,100862.66
2022-12-31T01:15:57.876Z,100861.00
2022-12-31T01:18:24.604Z,100850.75
2022-12-31T01:20:51.208Z,100849.75
2022-12-31T01:23:17.799Z,100852.41
2022-12-31T01:25:44.588Z,100853.03
2022-12-31T01:28:11.220Z,100853.69
2022-12-31T01:30:39.268Z,100845.47
2022-12-31T01:33:06.031Z,100842.09
2022-12-31T01:35:34.984Z,100848.00
2022-12-31T01:38:01.885Z,100842.75
2022-12-31T01:40:28.509Z,100852.50
2022-12-31T01:42:56.827Z,100856.72
2022-12-31T01:45:23.549Z,100853.06
2022-12-31T01:47:54.755Z,100854.06
2022-12-31T01:50:27.820Z,100860.19
2022-12-31T01:53:00.937Z,100858.56
2022-12-31T01:55:32.945Z,100863.69
2022-12-31T01:58:06.842Z,100859.03
2022-12-31T02:00:33.840Z,100855.50
2022-12-31T02:03:01.204Z,100860.47
2022-12-31T02:05:50.924Z,100862.53
2022-12-31T02:08:18.189Z,100861.22
2022-12-31T02:10:44.783Z,100865.50
2022-12-31T02:13:11.644Z,100861.16
2022-12-31T02:15:59.461Z,100855.97
2022-12-31T02:19:03.723Z,100851.66
2022-12-31T02:22:02.831Z,100856.59
2022-12-31T02:25:10.359Z,100857.53
2022-12-31T02:27:36.891Z,100858.09
2022-12-31T02:30:10.921Z,100873.84
2022-12-31T02:32:52.521Z,100856.59
2022-12-31T02:35:29.987Z,100854.09
2022-12-31T02:38:16.880Z,100853.50
2022-12-31T02:40:44.733Z,100859.28
2022-12-31T02:43:11.317Z,100860.75
2022-12-31T02:45:41.973Z,100866.16
2022-12-31T02:48:19.036Z,100877.09
2022-12-31T02:51:00.771Z,100869.19
2022-12-31T02:53:47.431Z,100875.22
2022-12-31T02:56:27.117Z,100869.09
2022-12-31T02:59:23.547Z,100865.94
2022-12-31T03:02:07.153Z,100857.16
2022-12-31T03:04:34.631Z,100866.47
2022-12-31T03:07:14.472Z,100858.25
2022-12-31T03:09:41.085Z,100851.16
2022-12-31T03:12:11.193Z,100829.41
2022-12-31T03:14:37.807Z,100823.69
2022-12-31T03:17:04.728Z,100823.72
2022-12-31T03:19:31.327Z,100828.03
2022-12-31T03:21:57.922Z,100845.63
2022-12-31T03:24:24.525Z,100856.06
2022-12-31T03:26:51.134Z,100845.47
2022-12-31T03:29:17.741Z,100830.56
2022-12-31T03:31:44.467Z,100832.22
2022-12-31T03:34:11.223Z,100848.09
2022-12-31T03:36:37.794Z,100864.25
2022-12-31T03:39:04.429Z,100855.47
2022-12-31T03:41:31.056Z,100854.38
2022-12-31T03:43:57.641Z,100851.38
2022-12-31T03:46:24.245Z,100844.31
2022-12-31T03:48:50.838Z,100840.03
2022-12-31T03:51:17.440Z,100835.47
2022-12-31T03:53:44.068Z,100838.22
2022-12-31T03:56:10.668Z,100833.88
2022-12-31T03:58:37.276Z,100833.72
2022-12-31T04:01:04.013Z,100835.88
2022-12-31T04:03:30.698Z,100832.47
2022-12-31T04:05:57.304Z,100839.53
2022-12-31T04:08:24.281Z,100848.31
2022-12-31T04:10:50.883Z,100850.81
2022-12-31T04:13:17.465Z,100844.47
2022-12-31T04:15:44.081Z,100842.72
2022-12-31T04:18:10.656Z,100837.88
2022-12-31T04:20:37.261Z,100838.63
2022-12-31T04:23:04.016Z,100845.63
2022-12-31T04:25:30.625Z,100856.03
2022-12-31T04:27:57.218Z,100845.81
2022-12-31T04:30:23.820Z,100841.91
2022-12-31T04:32:50.411Z,100850.63
2022-12-31T04:35:17.010Z,100851.66
2022-12-31T04:37:43.678Z,100856.00
2022-12-31T04:40:10.700Z,100868.00
2022-12-31T04:42:37.855Z,100865.94
2022-12-31T04:45:05.233Z,100877.03
2022-12-31T04:47:31.816Z,100884.84
2022-12-31T04:49:58.424Z,100888.25
2022-12-31T04:52:25.133Z,100888.19
2022-12-31T04:54:51.722Z,100889.91
2022-12-31T04:57:18.366Z,100892.69
2022-12-31T04:59:45.016Z,100886.84
2022-12-31T05:02:11.824Z,100902.31
2022-12-31T05:04:38.558Z,100901.00
2022-12-31T05:07:05.226Z,100908.22
2022-12-31T05:09:31.824Z,100914.84
2022-12-31T05:11:58.433Z,100912.97
2022-12-31T05:14:25.095Z,100913.91
2022-12-31T05:16:51.878Z,100918.34
2022-12-31T05:19:18.541Z,100920.97
2022-12-31T05:21:45.116Z,100907.59
2022-12-31T05:24:11.740Z,100912.19
2022-12-31T05:26:38.337Z,100919.06
2022-12-31T05:29:04.940Z,100924.16
2022-12-31T05:31:31.535Z,100925.97
2022-12-31T05:33:58.138Z,100931.38
2022-12-31T05:36:24.716Z,100927.03
2022-12-31T05:38:51.391Z,100933.91
2022-12-31T05:41:17.979Z,100942.03
2022-12-31T05:43:44.572Z,100948.88
2022-12-31T05:46:11.251Z,100955.50
2022-12-31T05:48:37.894Z,100951.28
2022-12-31T05:51:04.705Z,100949.22
2022-12-31T05:53:31.359Z,100950.06
2022-12-31T05:55:57.939Z,100953.25
2022-12-31T05:58:24.538Z,100948.56
2022-12-31T06:00:52.095Z,100941.56
2022-12-31T06:03:18.792Z,100955.88
2022-12-31T06:05:45.443Z,100957.78
2022-12-31T06:08:12.445Z,100957.25
2022-12-31T06:10:39.731Z,100952.44
2022-12-31T06:13:07.056Z,100946.28
2022-12-31T06:15:37.902Z,100957.63
2022-12-31T06:18:04.699Z,100954.94
2022-12-31T06:20:31.299Z,100961.91
2022-12-31T06:22:57.892Z,100959.19
2022-12-31T06:25:24.572Z,100956.41
2022-12-31T06:27:51.155Z,100958.00
2022-12-31T06:30:17.786Z,100949.13
2022-12-31T06:32:44.383Z,100956.00
2022-12-31T06:35:10.988Z,100962.31
2022-12-31T06:37:37.620Z,100969.31
2022-12-31T06:40:04.736Z,100975.41
2022-12-31T06:42:31.690Z,100972.63
2022-12-31T06:44:59.495Z,100968.81
2022-12-31T06:47:26.412Z,100973.09
2022-12-31T06:49:53.070Z,100989.03
2022-12-31T06:52:19.913Z,100989.31
2022-12-31T06:54:47.449Z,100995.47
2022-12-31T06:57:14.375Z,100988.00
2022-12-31T06:59:41.273Z,100984.16
2022-12-31T07:02:16.850Z,100988.41
2022-12-31T07:05:05.626Z,100990.94
2022-12-31T07:07:44.489Z,100984.28
2022-12-31T07:10:29.059Z,100988.75
2022-12-31T07:13:23.058Z,100998.53
2022-12-31T07:16:08.049Z,100998.44
2022-12-31T07:19:05.404Z,100997.53
2022-12-31T07:21:36.782Z,101007.56
2022-12-31T07:24:06.278Z,101010.25
2022-12-31T07:27:07.366Z,101004.88
2022-12-31T07:30:02.062Z,101014.81
2022-12-31T07:32:34.442Z,101016.28
2022-12-31T07:35:17.520Z,101011.38
2022-12-31T07:37:44.075Z,101020.34
2022-12-31T07:40:19.784Z,101012.41
2022-12-31T07:43:40.584Z,100997.00
2022-12-31T07:46:14.398Z,101008.06
2022-12-31T07:48:41.251Z,101019.22
2022-12-31T07:51:10.433Z,101017.97
2022-12-31T07:53:37.729Z,101020.00
2022-12-31T07:56:06.860Z,101025.19
2022-12-31T07:59:07.185Z,101033.66
2022-12-31T08:01:54.186Z,101037.03
2022-12-31T08:04:27.370Z,101035.75
2022-12-31T08:07:05.783Z,101032.25
2022-12-31T08:09:55.092Z,101058.25
2022-12-31T08:12:23.440Z,101042.91
2022-12-31T08:14:50.202Z,101038.75
2022-12-31T08:17:18.809Z,101035.88
2022-12-31T08:19:46.479Z,101035.09
2022-12-31T08:22:34.583Z,101027.13
2022-12-31T08:25:08.741Z,101034.75
2022-12-31T08:27:41.723Z,101040.50
2022-12-31T08:30:13.977Z,101047.63
2022-12-31T08:33:18.942Z,101068.72
2022-12-31T08:36:23.193Z,101076.56
2022-12-31T08:39:12.461Z,101080.63
2022-12-31T08:41:43.414Z,101087.06
2022-12-31T08:44:28.446Z,101095.53
2022-12-31T08:47:10.120Z,101094.41
2022-12-31T08:49:37.019Z,101094.00
2022-12-31T08:52:04.462Z,101087.78
2022-12-31T08:54:31.269Z,101098.81
2022-12-31T08:57:26.166Z,101099.69
2022-12-31T09:00:08.073Z,101102.50
2022-12-31T09:02:46.177Z,101103.41
2022-12-31T09:05:22.571Z,101112.53
2022-12-31T09:07:54.987Z,101106.16
2022-12-31T09:10:32.171Z,101103.56
2022-12-31T09:13:08.739Z,101094.97
2022-12-31T09:16:00.051Z,101101.84
2022-12-31T09:18:32.878Z,101115.72
2022-12-31T09:21:00.144Z,101109.25
2022-12-31T09:23:27.106Z,101093.25
2022-12-31T09:26:05.567Z,101095.75
2022-12-31T09:28:56.774Z,101086.34
2022-12-31T09:31:45.041Z,101096.81
2022-12-31T09:34:14.608Z,101091.38
2022-12-31T09:36:46.934Z,101097.44
2022-12-31T09:39:42.497Z,101085.50
2022-12-31T09:42:33.720Z,101069.94
2022-12-31T09:45:23.054Z,101083.34
2022-12-31T09:47:55.745Z,101081.44
2022-12-31T09:50:43.006Z,101074.41
2022-12-31T09:53:35.926Z,101051.72
2022-12-31T09:56:44.959Z,101050.31
2022-12-31T09:59:24.656Z,101033.59
2022-12-31T10:02:02.934Z,101036.25
2022-12-31T10:05:12.869Z,101036.75
2022-12-31T10:07:53.896Z,101039.94
2022-12-31T10:10:26.728Z,101037.94
2022-12-31T10:12:59.349Z,101029.91
2022-12-31T10:15:52.900Z,101019.41
2022-12-31T10:18:47.188Z,101018.81
2022-12-31T10:21:19.695Z,101028.56
2022-12-31T10:24:30.495Z,101030.28
2022-12-31T10:27:28.266Z,101038.09
2022-12-31T10:30:15.425Z,101051.28
2022-12-31T10:33:13.451Z,101041.25
2022-12-31T10:35:43.546Z,101054.66
2022-12-31T10:38:22.250Z,101026.44
2022-12-31T10:41:06.984Z,101038.81
2022-12-31T10:44:12.551Z,101049.44
2022-12-31T10:47:03.795Z,101059.78
2022-12-31T10:50:02.631Z,101053.41
2022-12-31T10:53:16.320Z,101047.59
2022-12-31T10:56:08.111Z,101053.78
2022-12-31T10:58:54.622Z,101039.75
2022-12-31T11:01:24.288Z,101028.59
2022-12-31T11:04:18.769Z,101039.09
2022-12-31T11:06:51.077Z,101045.16
2022-12-31T11:09:34.398Z,101028.59
2022-12-31T11:12:19.699Z,101047.00
2022-12-31T11:14:46.228Z,101039.13
2022-12-31T11:17:34.768Z,101028.63
2022-12-31T11:20:25.596Z,101023.38
2022-12-31T11:23:03.922Z,101025.22
2022-12-31T11:25:38.985Z,101018.22
2022-12-31T11:28:05.569Z,101012.97
2022-12-31T11:30:44.317Z,101039.09
2022-12-31T11:33:37.180Z,101039.97
2022-12-31T11:36:32.675Z,101045.16
2022-12-31T11:39:31.033Z,101034.56
2022-12-31T11:42:03.955Z,101016.06
2022-12-31T11:44:45.224Z,101031.13
2022-12-31T11:47:23.071Z,101027.72
2022-12-31T11:50:01.252Z,101019.84
2022-12-31T11:52:51.259Z,101022.50
2022-12-31T11:55:41.529Z,101011.88
2022-12-31T11:58:18.011Z,101012.03
2022-12-31T12:00:54.696Z,101024.31
2022-12-31T12:03:21.768Z,101012.00
2022-12-31T12:05:49.045Z,101025.91
2022-12-31T12:08:16.772Z,101019.81
2022-12-31T12:11:04.058Z,101033.88
2022-12-31T12:13:30.798Z,101040.97
2022-12-31T12:16:00.577Z,101028.66
2022-12-31T12:18:35.748Z,101040.94
2022-12-31T12:21:22.080Z,101045.28
2022-12-31T12:24:04.523Z,101034.75
2022-12-31T12:26:42.336Z,101035.59
2022-12-31T12:29:31.207Z,101025.22
2022-12-31T12:31:59.169Z,101038.28
2022-12-31T12:34:29.493Z,101039.25
2022-12-31T12:36:56.692Z,101037.50
2022-12-31T12:39:34.344Z,101033.94
2022-12-31T12:42:19.856Z,101045.19
2022-12-31T12:44:46.448Z,101047.81
2022-12-31T12:47:18.593Z,101036.34
2022-12-31T12:49:48.137Z,101036.53
2022-12-31T12:52:36.755Z,101035.72
2022-12-31T12:55:12.161Z,101008.69
2022-12-31T12:58:03.696Z,101005.97
2022-12-31T13:00:54.897Z,101007.81
2022-12-31T13:03:36.639Z,101012.81
2022-12-31T13:06:12.102Z,101012.94
2022-12-31T13:09:03.419Z,101013.91
2022-12-31T13:12:07.100Z,101027.91
2022-12-31T13:15:00.885Z,101013.06
2022-12-31T13:17:53.417Z,101015.72
2022-12-31T13:20:24.591Z,101029.66
2022-12-31T13:23:10.614Z,101033.19
2022-12-31T13:25:43.217Z,101022.69
2022-12-31T13:28:15.266Z,101034.91
2022-12-31T13:30:46.917Z,101039.22
2022-12-31T13:33:25.266Z,101037.50
2022-12-31T13:36:02.085Z,101037.50
2022-12-31T13:38:40.017Z,101043.59
2022-12-31T13:41:11.974Z,101050.63
2022-12-31T13:44:24.232Z,101043.63
2022-12-31T13:46:59.708Z,101055.84
2022-12-31T13:49:35.655Z,101050.56
2022-12-31T13:52:38.832Z,101029.53
2022-12-31T13:55:26.941Z,101017.31
2022-12-31T13:58:10.688Z,101010.38
2022-12-31T14:00:45.124Z,101029.66
2022-12-31T14:03:36.716Z,101024.41
2022-12-31T14:06:38.490Z,101042.75
2022-12-31T14:09:05.982Z,101057.63
2022-12-31T14:12:10.255Z,101061.97
2022-12-31T14:15:04.860Z,101070.69
2022-12-31T14:17:43.688Z,101060.22
2022-12-31T14:20:31.870Z,101061.09
2022-12-31T14:23:18.276Z,101060.25
2022-12-31T14:25:49.128Z,101060.25
2022-12-31T14:28:21.466Z,101053.22
2022-12-31T14:30:54.013Z,101063.72
2022-12-31T14:33:50.059Z,101055.88
2022-12-31T14:36:41.671Z,101056.72
2022-12-31T14:39:17.135Z,101060.22
2022-12-31T14:41:52.968Z,101064.63
2022-12-31T14:44:43.762Z,101069.81
2022-12-31T14:47:41.048Z,101071.56
2022-12-31T14:50:26.353Z,101058.38
2022-12-31T14:53:02.084Z,101062.00
2022-12-31T14:55:34.505Z,101050.63
2022-12-31T15:00:53.642Z,101043.63
2022-12-31T15:03:31.103Z,101043.66
2022-12-31T15:06:22.706Z,101048.00
2022-12-31T15:09:07.920Z,101034.91
2022-12-31T15:11:38.072Z,101040.16
2022-12-31T15:14:13.422Z,101026.16
2022-12-31T15:17:11.726Z,101034.00
2022-12-31T15:20:17.712Z,101037.50
2022-12-31T15:22:52.478Z,101033.97
2022-12-31T15:25:41.552Z,101050.56
2022-12-31T15:28:30.287Z,101067.16
2022-12-31T15:31:06.043Z,101070.69
2022-12-31T15:33:52.655Z,101080.28
2022-12-31T15:36:25.551Z,101082.00
2022-12-31T15:39:09.848Z,101078.22
2022-12-31T15:42:18.806Z,101070.22
2022-12-31T15:44:57.045Z,101073.00
2022-12-31T15:47:41.723Z,101059.22
2022-12-31T15:50:17.562Z,101053.97
2022-12-31T15:52:57.015Z,101058.34
2022-12-31T15:55:38.890Z,101085.44
2022-12-31T15:58:30.105Z,101087.06
2022-12-31T16:01:04.994Z,101081.78
2022-12-31T16:03:31.919Z,101079.09
2022-12-31T16:06:04.475Z,101072.19
2022-12-31T16:08:34.807Z,101066.13
2022-12-31T16:11:04.710Z,101059.00
2022-12-31T16:13:36.386Z,101061.81
2022-12-31T16:16:15.482Z,101062.63
2022-12-31T16:18:43.881Z,101057.53
2022-12-31T16:21:24.733Z,101069.75
2022-12-31T16:23:54.053Z,101071.53
2022-12-31T16:26:24.468Z,101065.44
2022-12-31T16:28:51.367Z,101077.50
2022-12-31T16:31:19.873Z,101068.81
2022-12-31T16:33:47.155Z,101076.72
2022-12-31T16:36:22.656Z,101077.59
2022-12-31T16:38:49.752Z,101071.47
2022-12-31T16:41:20.190Z,101066.56
2022-12-31T16:43:50.526Z,101056.97
2022-12-31T16:46:29.497Z,101060.53
2022-12-31T16:48:59.934Z,101061.41
2022-12-31T16:51:31.223Z,101064.06
2022-12-31T16:53:58.449Z,101067.69
2022-12-31T16:56:45.233Z,101085.09
2022-12-31T16:59:35.231Z,101087.84
2022-12-31T17:02:07.086Z,101098.34
2022-12-31T17:04:34.331Z,101096.56
2022-12-31T17:07:40.276Z,101086.78
2022-12-31T17:10:06.793Z,101084.81
2022-12-31T17:12:53.004Z,101073.97
2022-12-31T17:15:42.212Z,101063.06
2022-12-31T17:18:18.630Z,101070.81
2022-12-31T17:20:45.371Z,101081.34
2022-12-31T17:23:22.540Z,101090.91
2022-12-31T17:25:49.348Z,101081.44
2022-12-31T17:28:24.245Z,101089.97
2022-12-31T17:30:51.097Z,101083.03
2022-12-31T17:33:20.305Z,101078.69
2022-12-31T17:35:47.937Z,101083.91
2022-12-31T17:38:23.339Z,101087.50
2022-12-31T17:40:52.397Z,101104.13
2022-12-31T17:43:21.718Z,101104.34
2022-12-31T17:45:51.663Z,101106.16
2022-12-31T17:48:20.022Z,101107.84
2022-12-31T17:50:53.970Z,101108.44
2022-12-31T17:53:21.244Z,101107.44
2022-12-31T17:55:51.314Z,101116.13
2022-12-31T17:58:29.901Z,101110.84
2022-12-31T18:00:56.825Z,101111.91
2022-12-31T18:03:23.676Z,101121.47
2022-12-31T18:05:50.319Z,101110.19
2022-12-31T18:08:16.941Z,101116.56
2022-12-31T18:10:44.981Z,101114.59
2022-12-31T18:13:24.044Z,101105.78
2022-12-31T18:15:51.700Z,101104.88
2022-12-31T18:18:33.635Z,101099.56
2022-12-31T18:21:03.747Z,101100.38
2022-12-31T18:23:40.477Z,101101.22
2022-12-31T18:26:12.555Z,101094.22
2022-12-31T18:28:42.445Z,101099.59
2022-12-31T18:31:27.460Z,101095.25
2022-12-31T18:33:56.228Z,101099.63
2022-12-31T18:36:24.338Z,101104.03
2022-12-31T18:38:51.033Z,101104.81
2022-12-31T18:41:20.586Z,101105.69
2022-12-31T18:43:47.826Z,101107.41
2022-12-31T18:46:17.548Z,101113.50
2022-12-31T18:48:44.340Z,101110.19
2022-12-31T18:51:16.963Z,101114.59
2022-12-31T18:53:43.731Z,101112.94
2022-12-31T18:56:13.373Z,101126.88
2022-12-31T18:58:40.688Z,101127.69
2022-12-31T19:01:30.283Z,101128.28
2022-12-31T19:03:59.658Z,101118.63
2022-12-31T19:06:26.480Z,101121.31
2022-12-31T19:08:53.071Z,101121.47
2022-12-31T19:11:20.409Z,101123.25
2022-12-31T19:13:47.762Z,101126.53
2022-12-31T19:16:14.553Z,101123.94
2022-12-31T19:18:42.041Z,101117.91
2022-12-31T19:21:20.589Z,101124.84
2022-12-31T19:23:47.269Z,101119.75
2022-12-31T19:26:16.305Z,101118.72
2022-12-31T19:28:44.055Z,101112.81
2022-12-31T19:31:10.852Z,101120.56
2022-12-31T19:33:37.545Z,101126.72
2022-12-31T19:36:04.890Z,101123.91
2022-12-31T19:38:31.496Z,101119.81
2022-12-31T19:41:01.527Z,101119.69
2022-12-31T19:43:28.127Z,101123.00
2022-12-31T19:45:54.777Z,101124.72
2022-12-31T19:48:30.266Z,101117.69
2022-12-31T19:50:59.300Z,101119.41
2022-12-31T19:53:27.393Z,101121.13
2022-12-31T19:55:54.476Z,101119.38
2022-12-31T19:58:23.709Z,101114.34
2022-12-31T20:00:55.876Z,101101.09
2022-12-31T20:03:25.867Z,101114.13
2022-12-31T20:06:01.505Z,101109.88
2022-12-31T20:08:28.084Z,101095.91
2022-12-31T20:10:54.705Z,101097.00
2022-12-31T20:13:21.339Z,101098.66
2022-12-31T20:15:47.994Z,101105.56
2022-12-31T20:18:14.633Z,101108.44
2022-12-31T20:20:49.239Z,101105.59
2022-12-31T20:23:20.203Z,101108.19
2022-12-31T20:25:59.331Z,101101.22
2022-12-31T20:28:26.203Z,101099.44
2022-12-31T20:30:52.955Z,101107.25
2022-12-31T20:33:19.984Z,101108.94
2022-12-31T20:35:46.619Z,101110.69
2022-12-31T20:38:13.210Z,101109.88
2022-12-31T20:40:46.233Z,101121.03
2022-12-31T20:43:13.499Z,101113.28
2022-12-31T20:45:41.041Z,101104.66
2022-12-31T20:48:07.658Z,101102.03
2022-12-31T20:50:34.255Z,101102.16
2022-12-31T20:53:00.852Z,101104.63
2022-12-31T20:55:27.580Z,101108.28
2022-12-31T20:57:54.188Z,101108.22
2022-12-31T21:00:20.871Z,101102.25
2022-12-31T21:02:55.485Z,101103.72
2022-12-31T21:05:27.817Z,101105.38
2022-12-31T21:07:54.511Z,101099.16
2022-12-31T21:10:21.269Z,101102.56
2022-12-31T21:12:47.873Z,101094.75
2022-12-31T21:15:14.476Z,101088.66
2022-12-31T21:17:41.220Z,101089.75
2022-12-31T21:20:08.410Z,101092.22
2022-12-31T21:22:35.105Z,101095.00
2022-12-31T21:25:02.092Z,101093.25
2022-12-31T21:27:29.694Z,101105.28
2022-12-31T21:30:21.588Z,101108.69
2022-12-31T21:32:43.231Z,101113.25
2022-12-31T21:38:03.427Z,101127.06
2022-12-31T21:40:31.141Z,101131.44
2022-12-31T21:42:57.895Z,101131.56
2022-12-31T21:45:24.590Z,101134.03
2022-12-31T21:47:51.411Z,101133.31
2022-12-31T21:50:18.133Z,101130.38
2022-12-31T21:52:44.829Z,101131.53
2022-12-31T21:55:12.046Z,101136.88
2022-12-31T21:58:07.087Z,101144.66
2022-12-31T22:00:41.614Z,101142.44
2022-12-31T22:03:11.863Z,101152.91
2022-12-31T22:05:39.381Z,101156.34
2022-12-31T22:08:05.981Z,101151.84
2022-12-31T22:10:37.056Z,101153.00
2022-12-31T22:13:04.190Z,101157.38
2022-12-31T22:15:30.927Z,101146.19
2022-12-31T22:17:57.521Z,101154.06
2022-12-31T22:20:28.299Z,101153.34
2022-12-31T22:22:55.434Z,101145.09
2022-12-31T22:25:22.035Z,101147.59
2022-12-31T22:28:04.420Z,101158.63
2022-12-31T22:30:35.297Z,101160.22
2022-12-31T22:33:01.878Z,101151.16
2022-12-31T22:35:28.483Z,101149.63
2022-12-31T22:37:57.910Z,101145.59
2022-12-31T22:40:25.691Z,101136.00
2022-12-31T22:42:52.301Z,101142.16
2022-12-31T22:45:18.873Z,101130.88
2022-12-31T22:47:45.460Z,101126.25
2022-12-31T22:50:12.123Z,101128.94
2022-12-31T22:52:38.768Z,101121.56
2022-12-31T22:55:05.867Z,101126.88
2022-12-31T22:57:32.466Z,101122.44
2022-12-31T22:59:59.048Z,101118.25
2022-12-31T23:02:27.006Z,101118.13
2022-12-31T23:04:53.629Z,101116.38
2022-12-31T23:07:43.197Z,101113.69
2022-12-31T23:10:10.970Z,101114.59
2022-12-31T23:12:37.638Z,101120.06
2022-12-31T23:15:04.561Z,101120.16
2022-12-31T23:17:32.164Z,101117.78
2022-12-31T23:20:00.183Z,101108.03
2022-12-31T23:22:26.784Z,101114.09
2022-12-31T23:24:53.388Z,101112.38
2022-12-31T23:27:20.017Z,101120.16
2022-12-31T23:29:47.805Z,101115.69
2022-12-31T23:32:18.548Z,101115.16
2022-12-31T23:34:46.094Z,101123.56
2022-12-31T23:37:13.816Z,101129.19
2022-12-31T23:39:40.524Z,101126.63
2022-12-31T23:42:07.147Z,101134.47
2022-12-31T23:44:33.817Z,101137.25
2022-12-31T23:47:00.519Z,101129.25
2022-12-31T23:49:27.191Z,101134.38
2022-12-31T23:51:53.918Z,101140.59
2022-12-31T23:54:20.560Z,101134.56
2022-12-31T23:56:47.265Z,101135.59
2022-12-31T23:59:13.954Z,101127.53
